Time;durP1;ratioP1;P1;durP2;ratioP2;P2;SDS_P1;SDS_P2;PMS_P1;PMS_P2;Temp;Humidity;BMP_temperature;BMP_pressure;BME280_temperature;BME280_humidity;BME280_pressure;Samples;Min_cycle;Max_cycle;Signal;HPM_P1;HPM_P2
2022/07/25 00:00:01;;;;;;;0.10;0.10;;;;;;;22.65;54.55;100764.31;5117840;27;20040;-37
2022/07/25 00:02:27;;;;;;;0.10;0.10;;;;;;;22.64;54.50;100756.31;5140901;27;20051;-39
2022/07/25 00:04:52;;;;;;;0.10;0.10;;;;;;;22.65;54.54;100753.22;5141542;27;20091;-39
2022/07/25 00:07:18;;;;;;;0.10;0.10;;;;;;;22.64;54.58;100737.69;5136659;27;20817;-38
2022/07/25 00:09:44;;;;;;;0.10;0.10;;;;;;;22.66;54.61;100734.59;5140106;27;20058;-39
2022/07/25 00:12:11;;;;;;;0.10;0.10;;;;;;;22.65;54.54;100727.41;5144970;27;20096;-40
2022/07/25 00:14:37;;;;;;;0.10;0.10;;;;;;;22.64;54.54;100726.59;5134713;27;20426;-37
2022/07/25 00:17:02;;;;;;;0.10;0.10;;;;;;;22.64;54.69;100723.81;5138446;27;20053;-39
2022/07/25 00:19:28;;;;;;;0.10;0.10;;;;;;;22.66;54.63;100729.06;5134655;27;20508;-38
2022/07/25 00:21:54;;;;;;;0.10;0.10;;;;;;;22.65;54.58;100731.00;5137759;27;20374;-39
2022/07/25 00:24:19;;;;;;;0.10;0.10;;;;;;;22.65;54.72;100730.19;5141950;27;20047;-37
2022/07/25 00:26:45;;;;;;;0.10;0.10;;;;;;;22.65;54.63;100725.47;5139639;27;20111;-39
2022/07/25 00:29:11;;;;;;;0.10;0.10;;;;;;;22.65;54.68;100719.09;5143554;27;20047;-39
2022/07/25 00:31:36;;;;;;;0.10;0.10;;;;;;;22.66;54.39;100720.72;5141947;27;20039;-39
2022/07/25 00:34:02;;;;;;;0.10;0.10;;;;;;;22.65;54.53;100719.91;5143245;27;20042;-39
2022/07/25 00:36:28;;;;;;;0.10;0.10;;;;;;;22.65;54.64;100717.13;5141004;27;20047;-37
2022/07/25 00:38:54;;;;;;;0.10;0.10;;;;;;;22.66;54.58;100718.78;5140703;27;20097;-39
2022/07/25 00:41:20;;;;;;;0.10;0.10;;;;;;;22.65;54.50;100708.81;5122427;27;20049;-36
2022/07/25 00:43:45;;;;;;;0.10;0.10;;;;;;;22.65;54.57;100708.81;5124036;27;20039;-39
2022/07/25 00:46:14;;;;;;;0.10;0.10;;;;;;;22.65;54.63;100708.00;5140907;27;20042;-39
2022/07/25 00:48:44;;;;;;;0.10;0.10;;;;;;;22.65;54.54;100714.34;5117653;27;20043;-37
2022/07/25 00:51:10;;;;;;;0.10;0.10;;;;;;;22.65;54.44;100711.59;5116049;27;20048;-37
2022/07/25 00:53:37;;;;;;;0.10;0.10;;;;;;;22.65;54.53;100708.81;5113904;28;20075;-39
2022/07/25 00:56:04;;;;;;;0.10;0.10;;;;;;;22.65;54.73;100708.00;5140896;27;20113;-38
2022/07/25 00:58:30;;;;;;;0.10;0.10;;;;;;;22.65;54.63;100711.59;5125944;27;20129;-39
2022/07/25 01:00:56;;;;;;;0.10;0.10;;;;;;;22.66;54.69;100712.41;5140840;27;20079;-39
2022/07/25 01:03:22;;;;;;;0.10;0.10;;;;;;;22.65;54.58;100717.13;5140836;27;20134;-38
2022/07/25 01:05:49;;;;;;;0.10;0.10;;;;;;;22.66;54.62;100717.94;5140607;27;20078;-39
2022/07/25 01:08:20;;;;;;;0.10;0.10;;;;;;;22.65;54.63;100714.34;5126533;27;21122;-39
2022/07/25 01:10:47;;;;;;;0.10;0.10;;;;;;;22.66;54.60;100712.41;5139268;27;20086;-37
2022/07/25 01:13:12;;;;;;;0.10;0.10;;;;;;;22.66;54.87;100718.78;5119192;27;20081;-39
2022/07/25 01:15:38;;;;;;;0.10;0.10;;;;;;;22.66;54.68;100704.88;5123458;27;20046;-39
2022/07/25 01:18:04;;;;;;;0.10;0.10;;;;;;;22.65;54.53;100708.81;5120929;27;20083;-39
2022/07/25 01:20:31;;;;;;;0.10;0.10;;;;;;;22.66;54.56;100710.44;5124721;27;20083;-39
2022/07/25 01:22:58;;;;;;;0.10;0.10;;;;;;;22.65;54.53;100706.03;5143472;27;20074;-39
2022/07/25 01:25:24;;;;;;;0.10;0.10;;;;;;;22.66;54.65;100704.06;5140710;27;20146;-39
2022/07/25 01:27:50;;;;;;;0.10;0.10;;;;;;;22.66;54.62;100696.56;5135990;27;20084;-39
2022/07/25 01:30:21;;;;;;;0.10;0.10;;;;;;;22.65;54.72;100700.47;5141371;27;20126;-39
2022/07/25 01:32:47;;;;;;;0.10;0.10;;;;;;;22.66;54.52;100704.88;5109933;27;20074;-37
2022/07/25 01:35:13;;;;;;;0.10;0.10;;;;;;;22.66;54.61;100692.97;5121969;27;20065;-39
2022/07/25 01:37:40;;;;;;;0.10;0.10;;;;;;;22.66;54.60;100701.28;5121215;27;20130;-37
2022/07/25 01:40:10;;;;;;;0.10;0.10;;;;;;;22.66;54.54;100699.34;5142619;27;20043;-39
2022/07/25 01:42:36;;;;;;;0.10;0.10;;;;;;;22.66;54.56;100696.56;5140527;27;20074;-38
2022/07/25 01:45:03;;;;;;;0.20;0.20;;;;;;;22.66;54.68;100688.22;5142748;27;20058;-39
2022/07/25 01:47:28;;;;;;;0.10;0.10;;;;;;;22.65;54.55;100689.38;5143852;27;20082;-38
2022/07/25 01:49:54;;;;;;;0.20;0.20;;;;;;;22.66;54.55;100687.41;5147302;27;20103;-39
2022/07/25 01:52:20;;;;;;;0.20;0.20;;;;;;;22.66;54.51;100688.22;5142258;27;20053;-39
2022/07/25 01:54:46;;;;;;;0.10;0.10;;;;;;;22.67;54.61;100689.91;5121571;27;20046;-39
2022/07/25 01:57:13;;;;;;;0.10;0.10;;;;;;;22.65;54.61;100681.03;5128224;27;20050;-37
2022/07/25 01:59:39;;;;;;;0.10;0.10;;;;;;;22.67;54.67;100695.47;5119293;27;20042;-37
2022/07/25 02:02:06;;;;;;;0.20;0.20;;;;;;;22.66;54.62;100679.09;5139111;27;20508;-37
2022/07/25 02:04:33;;;;;;;0.10;0.10;;;;;;;22.66;54.57;100670.75;5143295;27;20035;-38
2022/07/25 02:06:59;;;;;;;0.10;0.10;;;;;;;22.67;54.54;100680.75;5140463;27;20474;-38
2022/07/25 02:09:25;;;;;;;0.10;0.10;;;;;;;22.66;54.34;100671.59;5138572;27;20042;-38
2022/07/25 02:11:51;;;;;;;0.10;0.10;;;;;;;22.65;54.46;100678.28;5106263;27;20053;-37
2022/07/25 02:14:17;;;;;;;0.10;0.10;;;;;;;22.65;54.49;100667.16;5143264;27;20397;-38
2022/07/25 02:16:43;;;;;;;0.10;0.10;;;;;;;22.65;54.43;100664.41;5139201;27;20045;-38
2022/07/25 02:19:09;;;;;;;0.10;0.10;;;;;;;22.66;54.60;100660.47;5141674;27;20047;-39
2022/07/25 02:21:35;;;;;;;0.10;0.10;;;;;;;22.67;54.59;100666.88;5139790;27;20047;-38
2022/07/25 02:24:02;;;;;;;0.10;0.10;;;;;;;22.67;54.51;100661.31;5140001;27;20484;-39
2022/07/25 02:26:28;;;;;;;0.10;0.10;;;;;;;22.67;54.54;100655.78;5136650;27;20055;-39
2022/07/25 02:28:54;;;;;;;0.10;0.10;;;;;;;22.66;54.61;100657.69;5138522;27;20484;-37
2022/07/25 02:31:19;;;;;;;0.10;0.10;;;;;;;22.66;54.58;100646.59;5139805;27;20404;-39
2022/07/25 02:33:45;;;;;;;0.10;0.10;;;;;;;22.66;54.47;100643.00;5141729;27;20129;-39
2022/07/25 02:36:11;;;;;;;0.10;0.10;;;;;;;22.66;54.72;100643.00;5138233;27;20050;-39
2022/07/25 02:38:37;;;;;;;0.10;0.10;;;;;;;22.67;54.63;100648.25;5140447;27;20035;-38
2022/07/25 02:41:03;;;;;;;0.10;0.10;;;;;;;22.66;54.46;100641.03;5138116;27;20039;-38
2022/07/25 02:43:28;;;;;;;0.10;0.10;;;;;;;22.67;54.57;100636.34;5139986;27;20114;-38
2022/07/25 02:45:54;;;;;;;0.10;0.10;;;;;;;22.66;54.59;100631.91;5139006;27;20413;-38
2022/07/25 02:48:20;;;;;;;0.10;0.10;;;;;;;22.67;54.55;100637.16;5136661;27;20047;-38
2022/07/25 02:50:45;;;;;;;0.17;0.17;;;;;;;22.65;54.64;100622.75;5143019;27;20058;-37
2022/07/25 02:53:11;;;;;;;0.20;0.20;;;;;;;22.66;54.53;100623.56;5138405;27;20039;-36
2022/07/25 02:55:37;;;;;;;0.10;0.10;;;;;;;22.65;54.60;100622.75;5144919;27;20552;-39
2022/07/25 02:58:02;;;;;;;0.10;0.10;;;;;;;22.66;54.67;100618.03;5138601;27;20385;-37
2022/07/25 03:00:29;;;;;;;0.10;0.10;;;;;;;22.66;54.54;100616.06;5138823;27;20043;-37
2022/07/25 03:02:55;;;;;;;0.10;0.10;;;;;;;22.67;54.67;100611.38;5136384;27;20066;-37
2022/07/25 03:05:20;;;;;;;0.10;0.10;;;;;;;22.67;54.53;100614.13;5138854;27;20481;-39
2022/07/25 03:07:46;;;;;;;0.10;0.10;;;;;;;22.66;54.60;100613.28;5142386;27;20046;-38
2022/07/25 03:10:12;;;;;;;0.10;0.10;;;;;;;22.67;54.52;100614.13;5135680;27;20039;-38
2022/07/25 03:12:39;;;;;;;0.10;0.10;;;;;;;22.67;54.66;100611.38;5139782;27;20445;-39
2022/07/25 03:15:05;;;;;;;0.10;0.10;;;;;;;22.67;54.62;100605.81;5141475;27;20491;-36
2022/07/25 03:17:31;;;;;;;0.10;0.10;;;;;;;22.66;54.37;100604.97;5136274;27;20871;-37
2022/07/25 03:19:57;;;;;;;0.10;0.10;;;;;;;22.67;54.53;100597.47;5135214;27;20035;-37
2022/07/25 03:22:23;;;;;;;0.10;0.10;;;;;;;22.67;54.63;100600.25;5106120;27;20127;-37
2022/07/25 03:24:49;;;;;;;0.10;0.10;;;;;;;22.66;54.53;100599.41;5117473;27;20465;-39
2022/07/25 03:27:15;;;;;;;0.10;0.10;;;;;;;22.65;54.56;100592.22;5126186;27;20074;-37
2022/07/25 03:29:41;;;;;;;0.10;0.10;;;;;;;22.67;54.55;100589.16;5102997;27;20078;-39
2022/07/25 03:32:07;;;;;;;0.10;0.10;;;;;;;22.67;54.51;100589.97;5118528;27;20130;-37
2022/07/25 03:34:34;;;;;;;0.10;0.10;;;;;;;22.66;54.63;100579.97;5144420;27;20721;-39
2022/07/25 03:37:00;;;;;;;0.10;0.10;;;;;;;22.66;54.53;100579.16;5136830;27;20096;-37
2022/07/25 03:39:27;;;;;;;0.10;0.10;;;;;;;22.65;54.41;100574.75;5138672;27;20144;-37
2022/07/25 03:41:53;;;;;;;0.10;0.10;;;;;;;22.66;54.64;100582.75;5137374;27;20073;-37
2022/07/25 03:44:19;;;;;;;0.10;0.10;;;;;;;22.66;54.50;100579.97;5137948;27;20042;-37
2022/07/25 03:46:45;;;;;;;0.10;0.10;;;;;;;22.67;54.86;100589.16;5135433;27;20425;-37
2022/07/25 03:49:10;;;;;;;0.10;0.10;;;;;;;22.66;54.62;100582.75;5139607;27;20545;-37
2022/07/25 03:51:36;;;;;;;0.10;0.10;;;;;;;22.66;54.86;100579.97;5126622;27;20035;-37
2022/07/25 03:54:04;;;;;;;0.10;0.10;;;;;;;22.66;54.56;100577.22;5140205;27;20088;-39
2022/07/25 03:56:38;;;;;;;0.10;0.10;;;;;;;22.67;54.68;100572.50;5139578;27;20480;-39
2022/07/25 03:59:19;;;;;;;0.10;0.10;;;;;;;22.66;54.64;100571.66;5123435;27;20050;-38
2022/07/25 04:01:47;;;;;;;0.10;0.10;;;;;;;22.67;54.58;100575.28;5127954;27;20074;-39
2022/07/25 04:04:13;;;;;;;0.10;0.10;;;;;;;22.67;54.58;100569.72;5141303;27;20051;-37
2022/07/25 04:06:39;;;;;;;0.10;0.10;;;;;;;22.67;54.58;100572.50;5121464;28;20049;-37
2022/07/25 04:09:06;;;;;;;0.10;0.10;;;;;;;22.66;54.58;100566.09;5141633;27;20112;-39
2022/07/25 04:11:31;;;;;;;0.20;0.20;;;;;;;22.66;54.69;100566.09;5107819;27;20078;-37
2022/07/25 04:13:57;;;;;;;0.10;0.10;;;;;;;22.67;54.55;100565.00;5140598;27;20039;-37
2022/07/25 04:16:23;;;;;;;0.10;0.10;;;;;;;22.66;54.52;100563.31;5119510;27;20039;-38
2022/07/25 04:18:50;;;;;;;0.10;0.10;;;;;;;22.66;54.62;100566.09;5142497;27;20144;-36
2022/07/25 04:21:17;;;;;;;0.10;0.10;;;;;;;22.67;54.53;100558.63;5145116;27;20043;-39
2022/07/25 04:23:42;;;;;;;0.10;0.10;;;;;;;22.66;54.63;100566.09;5125675;27;20041;-39
2022/07/25 04:26:08;;;;;;;0.10;0.10;;;;;;;22.67;54.58;100561.41;5140129;27;20049;-38
2022/07/25 04:28:34;;;;;;;0.10;0.10;;;;;;;22.66;54.62;100555.00;5139391;27;20133;-37
2022/07/25 04:30:59;;;;;;;0.10;0.10;;;;;;;22.67;54.64;100562.22;5141748;27;20043;-38
2022/07/25 04:33:26;;;;;;;0.10;0.10;;;;;;;22.67;54.61;100559.44;5142743;27;20049;-38
2022/07/25 04:35:51;;;;;;;0.10;0.10;;;;;;;22.67;54.53;100556.66;5139826;27;20093;-37
2022/07/25 04:38:17;;;;;;;0.10;0.10;;;;;;;22.67;54.44;100548.34;5146668;27;20722;-37
2022/07/25 04:40:43;;;;;;;0.10;0.10;;;;;;;22.67;54.54;100545.56;5123530;27;20058;-37
2022/07/25 04:43:09;;;;;;;0.10;0.10;;;;;;;22.66;54.53;100535.56;5143934;27;20042;-37
2022/07/25 04:45:35;;;;;;;0.10;0.10;;;;;;;22.68;54.54;100532.50;5142670;27;20035;-36
2022/07/25 04:48:01;;;;;;;0.10;0.10;;;;;;;22.67;54.64;100533.66;5122290;27;20051;-37
2022/07/25 04:50:27;;;;;;;0.10;0.10;;;;;;;22.67;54.37;100528.91;5144832;27;20385;-37
2022/07/25 04:52:53;;;;;;;0.10;0.10;;;;;;;22.66;54.72;100530.03;5106375;27;20073;-39
2022/07/25 04:55:18;;;;;;;0.10;0.10;;;;;;;22.67;54.66;100525.31;5140670;27;20047;-38
2022/07/25 04:57:45;;;;;;;0.10;0.10;;;;;;;22.67;54.59;100526.13;5140008;27;20039;-37
2022/07/25 05:00:12;;;;;;;0.10;0.10;;;;;;;22.67;54.54;100517.00;5142564;27;20078;-36
2022/07/25 05:02:37;;;;;;;0.10;0.10;;;;;;;22.67;54.63;100514.22;5141106;27;20473;-37
2022/07/25 05:05:04;;;;;;;0.20;0.20;;;;;;;22.67;54.54;100514.22;5140030;27;20039;-36
2022/07/25 05:07:29;;;;;;;0.10;0.10;;;;;;;22.67;54.54;100511.44;5119598;27;20464;-37
2022/07/25 05:09:55;;;;;;;0.10;0.10;;;;;;;22.67;54.59;100506.69;5137903;27;20492;-37
2022/07/25 05:12:20;;;;;;;0.10;0.10;;;;;;;22.68;54.51;100504.75;5143061;27;20043;-37
2022/07/25 05:14:46;;;;;;;0.10;0.10;;;;;;;22.67;54.54;100500.34;5124570;27;20041;-37
2022/07/25 05:17:12;;;;;;;0.10;0.10;;;;;;;22.67;54.59;100509.47;5134837;27;20043;-38
2022/07/25 05:19:37;;;;;;;0.10;0.10;;;;;;;22.67;54.58;100505.88;5122182;27;20378;-37
2022/07/25 05:22:03;;;;;;;0.10;0.10;;;;;;;22.67;54.45;100503.13;5139025;27;20043;-39
2022/07/25 05:24:33;;;;;;;0.10;0.10;;;;;;;22.67;54.59;100511.44;5142292;27;20042;-39
2022/07/25 05:26:58;;;;;;;0.10;0.10;;;;;;;22.66;54.46;100516.13;5105328;27;20124;-39
2022/07/25 05:29:26;;;;;;;0.10;0.10;;;;;;;22.66;54.59;100507.00;5123332;27;20070;-36
2022/07/25 05:31:52;;;;;;;0.10;0.10;;;;;;;22.66;54.55;100510.59;5139730;27;20366;-37
2022/07/25 05:34:18;;;;;;;0.10;0.10;;;;;;;22.67;54.54;100509.47;5140011;27;20038;-37
2022/07/25 05:36:43;;;;;;;0.10;0.10;;;;;;;22.67;54.50;100511.44;5139439;27;20066;-37
2022/07/25 05:39:12;;;;;;;0.10;0.10;;;;;;;22.66;54.55;100507.81;5141261;27;20046;-37
2022/07/25 05:41:38;;;;;;;0.10;0.10;;;;;;;22.67;54.66;100514.22;5142880;27;20051;-37
2022/07/25 05:44:04;;;;;;;0.10;0.10;;;;;;;22.67;54.57;100508.66;5140713;27;20043;-38
2022/07/25 05:46:32;;;;;;;0.10;0.10;;;;;;;22.66;54.47;100499.50;5143624;27;20077;-38
2022/07/25 05:48:57;;;;;;;0.20;0.20;;;;;;;22.67;54.47;100501.16;5123546;27;20047;-39
2022/07/25 05:51:23;;;;;;;0.10;0.10;;;;;;;22.66;54.61;100499.50;5143452;27;20043;-37
2022/07/25 05:53:53;;;;;;;0.10;0.10;;;;;;;22.67;54.53;100501.16;5123483;27;20081;-37
2022/07/25 05:56:19;;;;;;;0.13;0.13;;;;;;;22.67;54.51;100500.34;5123690;27;20078;-39
2022/07/25 05:58:44;;;;;;;0.10;0.10;;;;;;;22.66;54.52;100493.94;5129935;27;20089;-37
2022/07/25 06:01:11;;;;;;;0.10;0.10;;;;;;;22.67;54.44;100487.28;5130798;28;20047;-38
2022/07/25 06:03:36;;;;;;;0.10;0.10;;;;;;;22.67;54.60;100497.56;5131155;27;20179;-39
2022/07/25 06:06:02;;;;;;;0.10;0.10;;;;;;;22.67;54.63;100492.00;5139897;27;20121;-37
2022/07/25 06:08:29;;;;;;;0.10;0.10;;;;;;;22.67;54.55;100494.78;5104345;27;20055;-39
2022/07/25 06:10:57;;;;;;;0.10;0.10;;;;;;;22.67;54.62;100492.00;5145365;27;20465;-38
2022/07/25 06:13:23;;;;;;;0.10;0.10;;;;;;;22.67;54.57;100487.28;5142050;27;20332;-38
2022/07/25 06:15:48;;;;;;;0.10;0.10;;;;;;;22.67;54.46;100480.91;5137038;27;20494;-39
2022/07/25 06:18:14;;;;;;;0.10;0.10;;;;;;;22.67;54.39;100480.91;5140743;27;20043;-38
2022/07/25 06:20:40;;;;;;;0.10;0.10;;;;;;;22.67;54.53;100481.72;5142901;27;20504;-38
2022/07/25 06:23:06;;;;;;;0.10;0.10;;;;;;;22.67;54.53;100489.22;5118221;27;20046;-39
2022/07/25 06:25:31;;;;;;;0.10;0.10;;;;;;;22.66;54.59;100479.25;5138531;27;20068;-38
2022/07/25 06:27:57;;;;;;;0.10;0.10;;;;;;;22.67;54.52;100478.13;5139085;27;20043;-37
2022/07/25 06:30:23;;;;;;;0.10;0.10;;;;;;;22.67;54.51;100478.13;5140702;27;20122;-39
2022/07/25 06:32:49;;;;;;;0.10;0.10;;;;;;;22.67;54.50;100470.63;5140382;27;20073;-37
2022/07/25 06:35:16;;;;;;;0.10;0.10;;;;;;;22.68;54.61;100485.31;5139534;27;20042;-37
2022/07/25 06:37:41;;;;;;;0.10;0.10;;;;;;;22.67;54.47;100480.91;5139715;27;20043;-37
2022/07/25 06:40:08;;;;;;;0.10;0.10;;;;;;;22.67;54.55;100492.00;5121532;27;20043;-38
2022/07/25 06:42:38;;;;;;;0.10;0.10;;;;;;;22.67;54.61;100487.28;5139237;27;20489;-41
2022/07/25 06:45:05;;;;;;;0.10;0.10;;;;;;;22.67;54.63;100475.34;5106064;27;20074;-36
2022/07/25 06:47:30;;;;;;;0.10;0.10;;;;;;;22.67;54.51;100481.72;5114972;27;20086;-38
2022/07/25 06:50:01;;;;;;;0.17;0.17;;;;;;;22.67;54.50;100484.50;5140098;27;20046;-38
2022/07/25 06:52:27;;;;;;;0.10;0.10;;;;;;;22.67;54.63;100480.91;5142112;27;20070;-38
2022/07/25 06:54:53;;;;;;;0.10;0.10;;;;;;;22.66;54.59;100485.59;5139520;27;20397;-37
2022/07/25 06:57:18;;;;;;;0.10;0.10;;;;;;;22.66;54.54;100477.28;5140007;27;20092;-37
2022/07/25 06:59:44;;;;;;;0.10;0.10;;;;;;;22.67;54.60;100473.41;5143573;27;20053;-37
2022/07/25 07:02:11;;;;;;;0.10;0.10;;;;;;;22.68;54.57;100474.22;5142434;27;20051;-38
2022/07/25 07:04:37;;;;;;;0.10;0.10;;;;;;;22.67;54.64;100478.13;5140287;27;20510;-39
2022/07/25 07:07:03;;;;;;;0.10;0.10;;;;;;;22.67;54.54;100472.59;5138482;27;20504;-35
2022/07/25 07:09:28;;;;;;;0.10;0.10;;;;;;;22.68;54.58;100485.31;5137661;27;20043;-37
2022/07/25 07:11:54;;;;;;;0.10;0.10;;;;;;;22.67;54.86;100487.28;5140271;27;20405;-37
2022/07/25 07:14:20;;;;;;;0.10;0.10;;;;;;;22.69;54.50;100475.84;5140173;27;20092;-38
2022/07/25 07:16:45;;;;;;;0.10;0.10;;;;;;;22.67;54.72;100464.25;5141259;27;20049;-37
2022/07/25 07:19:13;;;;;;;0.10;0.10;;;;;;;22.68;54.44;100468.66;5141282;27;20085;-39
2022/07/25 07:21:40;;;;;;;0.10;0.10;;;;;;;22.67;54.59;100464.25;5123636;27;20035;-34
2022/07/25 07:24:06;;;;;;;0.13;0.13;;;;;;;22.67;54.46;100465.06;5122483;27;20084;-37
2022/07/25 07:26:49;;;;;;;0.10;0.10;;;;;;;22.67;54.47;100467.03;5139069;27;20044;-39
2022/07/25 07:29:15;;;;;;;0.10;0.10;;;;;;;22.68;54.68;100468.66;5140312;27;20067;-37
2022/07/25 07:31:41;;;;;;;0.10;0.10;;;;;;;22.68;54.59;100471.44;5142584;27;20039;-39
2022/07/25 07:34:06;;;;;;;0.10;0.10;;;;;;;22.68;54.63;100479.75;5145201;27;20042;-38
2022/07/25 07:36:32;;;;;;;0.10;0.10;;;;;;;22.67;54.49;100473.41;5141739;27;20047;-37
2022/07/25 07:38:58;;;;;;;0.10;0.10;;;;;;;22.67;54.58;100469.81;5142229;27;20138;-37
2022/07/25 07:41:23;;;;;;;0.10;0.10;;;;;;;22.68;54.67;100474.22;5142353;27;20073;-37
2022/07/25 07:43:49;;;;;;;0.10;0.10;;;;;;;22.68;54.50;100477.81;5137762;27;20050;-39
2022/07/25 07:46:15;;;;;;;0.10;0.10;;;;;;;22.68;54.54;100471.44;5142813;27;20043;-37
2022/07/25 07:48:40;;;;;;;0.10;0.10;;;;;;;22.68;54.61;100477.00;5141445;27;20382;-39
2022/07/25 07:51:06;;;;;;;0.10;0.10;;;;;;;22.68;54.57;100466.69;5141591;27;20039;-39
2022/07/25 07:56:18;;;;;;;0.10;0.10;;;;;;;22.67;54.57;100469.81;5116623;27;20075;-38
2022/07/25 07:58:44;;;;;;;0.10;0.10;;;;;;;22.68;54.53;100477.00;5143153;27;20362;-37
2022/07/25 08:01:10;;;;;;;0.10;0.10;;;;;;;22.67;54.75;100481.72;5141351;27;20039;-40
2022/07/25 08:03:36;;;;;;;0.10;0.10;;;;;;;22.68;54.59;100486.13;5127016;27;20070;-37
2022/07/25 08:06:02;;;;;;;0.10;0.10;;;;;;;22.68;54.49;100486.13;5121422;27;20470;-39
2022/07/25 08:08:28;;;;;;;0.10;0.10;;;;;;;22.67;54.68;100486.47;5143447;27;20090;-39
2022/07/25 08:10:57;;;;;;;0.10;0.10;;;;;;;22.69;54.62;100489.72;5144154;27;20461;-37
2022/07/25 08:13:27;;;;;;;0.10;0.10;;;;;;;22.67;54.62;100490.06;5141571;27;20071;-37
2022/07/25 08:15:56;;;;;;;0.10;0.10;;;;;;;22.68;54.44;100490.88;5120018;27;20122;-37
2022/07/25 08:18:23;;;;;;;0.10;0.10;;;;;;;22.68;54.58;100494.47;5142497;27;20078;-39
2022/07/25 08:20:50;;;;;;;0.10;0.10;;;;;;;22.68;54.64;100496.41;5120222;27;20087;-39
2022/07/25 08:23:17;;;;;;;0.10;0.10;;;;;;;22.68;54.53;100496.41;5139687;27;20067;-38
2022/07/25 08:25:43;;;;;;;0.10;0.10;;;;;;;22.68;54.51;100488.91;5140922;27;20134;-39
2022/07/25 08:28:09;;;;;;;0.10;0.10;;;;;;;22.67;54.39;100484.50;5145176;27;20543;-37
2022/07/25 08:30:36;;;;;;;0.10;0.10;;;;;;;22.69;54.43;100484.16;5125511;27;20138;-38
2022/07/25 08:33:04;;;;;;;0.10;0.10;;;;;;;22.68;54.55;100490.88;5144862;27;20115;-36
2022/07/25 08:35:30;;;;;;;0.10;0.10;;;;;;;22.67;54.43;100490.06;5137721;27;20077;-36
2022/07/25 08:37:57;;;;;;;0.10;0.10;;;;;;;22.67;54.44;100506.69;5105377;27;20078;-39
2022/07/25 08:40:24;;;;;;;0.20;0.20;;;;;;;22.68;54.68;100502.78;5141957;27;20089;-37
2022/07/25 08:42:50;;;;;;;0.10;0.10;;;;;;;22.68;54.55;100505.56;5139855;27;20074;-36
2022/07/25 08:45:18;;;;;;;0.10;0.10;;;;;;;22.68;54.63;100502.78;5123438;27;20649;-39
2022/07/25 08:47:45;;;;;;;0.10;0.10;;;;;;;22.69;54.66;100495.28;5114220;27;20082;-37
2022/07/25 08:50:12;;;;;;;0.10;0.10;;;;;;;22.69;54.54;100489.72;5139896;27;20089;-39
2022/07/25 08:52:38;;;;;;;0.10;0.10;;;;;;;22.69;54.54;100496.09;5125713;27;20451;-37
2022/07/25 08:55:06;;;;;;;0.20;0.20;;;;;;;22.68;54.49;100496.41;5123636;27;20488;-37
2022/07/25 08:57:33;;;;;;;0.15;0.15;;;;;;;22.68;54.44;100499.19;5143402;27;20074;-37
2022/07/25 08:59:59;;;;;;;0.10;0.10;;;;;;;22.68;54.50;100488.09;5128188;27;20065;-38
2022/07/25 09:02:26;;;;;;;0.10;0.10;;;;;;;22.68;54.67;100497.22;5122527;27;20038;-39
2022/07/25 09:04:53;;;;;;;0.10;0.10;;;;;;;22.68;54.63;100493.63;5145761;27;20095;-38
2022/07/25 09:07:37;;;;;;;0.10;0.10;;;;;;;22.68;54.44;100491.69;5140543;27;20482;-39
2022/07/25 09:10:12;;;;;;;0.10;0.10;;;;;;;22.67;54.66;100498.38;5119515;27;20070;-37
2022/07/25 09:12:39;;;;;;;0.10;0.10;;;;;;;22.67;54.71;100509.47;5127795;27;20461;-38
2022/07/25 09:15:05;;;;;;;0.10;0.10;;;;;;;22.68;54.47;100501.97;5120131;27;20046;-36
2022/07/25 09:17:35;;;;;;;0.10;0.10;;;;;;;22.69;54.45;100501.66;5145043;27;20039;-39
2022/07/25 09:20:03;;;;;;;0.10;0.10;;;;;;;22.69;54.64;100509.16;5129669;27;20045;-38
2022/07/25 09:22:29;;;;;;;0.10;0.10;;;;;;;22.68;54.55;100510.28;5124021;27;20079;-39
2022/07/25 09:24:55;;;;;;;0.10;0.10;;;;;;;22.67;54.51;100512.25;5139953;27;20451;-39
2022/07/25 09:27:20;;;;;;;0.10;0.10;;;;;;;22.68;54.73;100519.44;5140507;27;20077;-37
2022/07/25 09:29:46;;;;;;;0.10;0.10;;;;;;;22.68;54.60;100519.44;5144269;27;20046;-39
2022/07/25 09:32:14;;;;;;;0.10;0.10;;;;;;;22.69;54.54;100525.81;5141894;27;20401;-38
2022/07/25 09:34:41;;;;;;;0.10;0.10;;;;;;;22.68;54.61;100521.41;5120976;27;20538;-38
2022/07/25 09:37:09;;;;;;;0.10;0.10;;;;;;;22.68;54.50;100527.78;5138717;27;20088;-37
2022/07/25 09:39:50;;;;;;;0.10;0.10;;;;;;;22.68;54.59;100532.50;5141570;27;20077;-39
2022/07/25 09:42:30;;;;;;;0.10;0.10;;;;;;;22.69;54.60;100528.59;5120114;27;20084;-37
2022/07/25 09:45:13;;;;;;;0.10;0.10;;;;;;;22.68;54.58;100527.78;5120980;27;20042;-37
2022/07/25 09:47:58;;;;;;;0.10;0.10;;;;;;;22.68;54.53;100527.78;5119450;27;20127;-39
2022/07/25 09:50:26;;;;;;;0.10;0.10;;;;;;;22.68;54.55;100536.09;5117078;27;20043;-40
2022/07/25 09:52:53;;;;;;;0.10;0.10;;;;;;;22.67;54.53;100540.00;5139487;27;20047;-37
2022/07/25 09:55:20;;;;;;;0.10;0.10;;;;;;;22.68;54.57;100543.59;5141259;27;20067;-37
2022/07/25 09:57:47;;;;;;;0.10;0.10;;;;;;;22.67;54.49;100540.00;5120692;27;20075;-37
2022/07/25 10:00:17;;;;;;;0.10;0.10;;;;;;;22.68;54.53;100543.59;5140254;27;20043;-39
2022/07/25 10:05:50;;;;;;;0.10;0.10;;;;;;;22.67;54.52;100551.13;5168102;27;20121;-39
2022/07/25 10:08:17;;;;;;;0.10;0.10;;;;;;;22.68;54.61;100563.84;5135133;27;20078;-38
2022/07/25 10:10:43;;;;;;;0.10;0.10;;;;;;;22.68;54.55;100576.91;5134426;27;20074;-39
2022/07/25 10:13:15;;;;;;;0.10;0.10;;;;;;;22.67;54.64;100576.09;5135819;27;20491;-37
2022/07/25 10:15:47;;;;;;;0.10;0.10;;;;;;;22.67;54.49;100576.09;5135047;27;20083;-39
2022/07/25 10:18:16;;;;;;;0.10;0.10;;;;;;;22.68;54.59;100563.84;5135560;27;20455;-39
2022/07/25 10:20:43;;;;;;;0.10;0.10;;;;;;;22.68;54.51;100549.97;5137584;27;20070;-38
2022/07/25 10:23:25;;;;;;;0.10;0.10;;;;;;;22.68;54.71;100540.84;5131623;27;20126;-38
2022/07/25 10:26:00;;;;;;;0.10;0.10;;;;;;;22.68;54.61;100543.59;5132808;27;20078;-37
2022/07/25 10:28:38;;;;;;;0.10;0.10;;;;;;;22.69;54.64;100545.25;5136999;27;20039;-43
2022/07/25 10:31:32;;;;;;;0.10;0.10;;;;;;;22.68;54.60;100540.84;5115779;27;20496;-41
2022/07/25 10:34:02;;;;;;;0.20;0.20;;;;;;;22.69;54.54;100536.91;5136748;27;20105;-41
2022/07/25 10:36:41;;;;;;;0.10;0.10;;;;;;;22.69;54.56;100528.59;5135960;27;20070;-41
2022/07/25 10:39:09;;;;;;;0.10;0.10;;;;;;;22.69;54.59;100532.19;5133139;27;20084;-42
2022/07/25 10:41:39;;;;;;;0.10;0.10;;;;;;;22.69;54.60;100528.59;5152531;27;20525;-40
2022/07/25 10:44:11;;;;;;;0.10;0.10;;;;;;;22.69;54.59;100534.94;5131227;27;20129;-42
2022/07/25 10:46:36;;;;;;;0.10;0.10;;;;;;;22.69;54.66;100528.59;5128526;27;20484;-41
2022/07/25 10:49:04;;;;;;;0.10;0.10;;;;;;;22.69;54.53;100534.13;5153392;27;20039;-40
2022/07/25 10:51:34;;;;;;;0.10;0.10;;;;;;;22.69;54.50;100528.59;5149264;27;20491;-40
2022/07/25 10:54:15;;;;;;;0.10;0.10;;;;;;;22.69;54.64;100536.91;5132943;27;20065;-39
2022/07/25 10:56:58;;;;;;;0.10;0.10;;;;;;;22.67;54.60;100553.91;5131573;27;20035;-41
2022/07/25 10:59:39;;;;;;;0.10;0.10;;;;;;;22.69;54.64;100562.72;5133060;27;20133;-41
2022/07/25 11:02:07;;;;;;;0.10;0.10;;;;;;;22.70;54.53;100567.13;5150621;27;20066;-42
2022/07/25 11:04:33;;;;;;;0.10;0.10;;;;;;;22.70;54.57;100556.03;5132155;27;20055;-41
2022/07/25 11:07:08;;;;;;;0.10;0.10;;;;;;;22.69;54.32;100559.94;5150112;27;20039;-39
2022/07/25 11:09:34;;;;;;;0.10;0.10;;;;;;;22.69;54.67;100562.72;5132542;27;20476;-41
2022/07/25 11:12:00;;;;;;;0.10;0.10;;;;;;;22.69;54.52;100564.66;5149917;27;20049;-40
2022/07/25 11:14:36;;;;;;;0.10;0.10;;;;;;;22.68;54.63;100552.75;5153861;27;20484;-41
2022/07/25 11:17:22;;;;;;;0.10;0.10;;;;;;;22.70;54.52;100563.53;5117632;27;20501;-39
2022/07/25 11:20:05;;;;;;;0.10;0.10;;;;;;;22.69;54.64;100562.72;5125709;27;20481;-41
2022/07/25 11:22:31;;;;;;;0.10;0.10;;;;;;;22.69;54.52;100561.91;5124736;27;20488;-41
2022/07/25 11:24:58;;;;;;;0.10;0.10;;;;;;;22.69;54.61;100548.84;5143086;27;20097;-41
2022/07/25 11:27:29;;;;;;;0.10;0.10;;;;;;;22.68;54.77;100558.31;5123565;27;20125;-41
2022/07/25 11:30:16;;;;;;;0.10;0.10;;;;;;;22.69;54.62;100561.91;5117481;27;20082;-41